Time;durP1;ratioP1;P1;durP2;ratioP2;P2;SDS_P1;SDS_P2;PMS_P1;PMS_P2;Temp;Humidity;BMP_temperature;BMP_pressure;BME280_temperature;BME280_humidity;BME280_pressure;Samples;Min_cycle;Max_cycle;Signal;HPM_P1;HPM_P2
2023/12/12 00:00:19;;;;;;;6.13;4.43;;;;;;;15.09;73.86;96273.81;5086738;28;20428;-27
2023/12/12 00:02:45;;;;;;;8.30;3.83;;;;;;;15.06;74.01;96274.00;5082076;28;20028;-27
2023/12/12 00:05:11;;;;;;;6.20;3.53;;;;;;;15.23;71.85;96277.88;5066710;28;20384;-27
2023/12/12 00:07:36;;;;;;;6.32;3.83;;;;;;;15.30;71.32;96283.03;5083956;28;20020;-26
2023/12/12 00:10:03;;;;;;;5.68;3.50;;;;;;;15.38;71.66;96289.66;5080711;28;20028;-27
2023/12/12 00:12:29;;;;;;;6.38;3.58;;;;;;;15.35;71.38;96287.84;5060886;28;20012;-27
2023/12/12 00:14:54;;;;;;;5.25;3.67;;;;;;;15.28;72.63;96299.13;5083009;28;20113;-26
2023/12/12 00:17:20;;;;;;;4.22;2.95;;;;;;;15.38;70.46;96302.56;5062770;28;20019;-28
2023/12/12 00:19:46;;;;;;;5.60;3.45;;;;;;;14.93;74.62;96306.19;5080155;28;20039;-26
2023/12/12 00:22:11;;;;;;;5.57;3.15;;;;;;;15.32;72.11;96298.97;5080713;28;20046;-27
2023/12/12 00:24:37;;;;;;;7.05;3.45;;;;;;;15.28;71.94;96280.00;5078148;28;20134;-26
2023/12/12 00:27:02;;;;;;;4.05;2.90;;;;;;;15.44;70.77;96282.38;5075312;28;20056;-26
2023/12/12 00:29:30;;;;;;;6.75;2.70;;;;;;;15.33;72.12;96276.63;5080025;28;20016;-27
2023/12/12 00:31:55;;;;;;;6.32;3.17;;;;;;;15.21;73.01;96266.63;5080109;28;20032;-26
2023/12/12 00:34:21;;;;;;;5.03;3.10;;;;;;;15.29;71.36;96269.81;5075473;28;20021;-26
2023/12/12 00:36:46;;;;;;;7.78;3.50;;;;;;;15.17;73.02;96281.69;5084001;28;20346;-27
2023/12/12 00:39:12;;;;;;;9.23;3.28;;;;;;;15.37;71.67;96285.41;5082645;28;20020;-28
2023/12/12 00:41:37;;;;;;;6.13;3.17;;;;;;;15.38;71.71;96286.19;5079795;28;20058;-28
2023/12/12 00:44:03;;;;;;;5.47;3.05;;;;;;;15.45;71.30;96283.84;5080221;28;20032;-27
2023/12/12 00:46:29;;;;;;;5.28;3.08;;;;;;;15.27;72.75;96281.22;5080293;28;20012;-27
2023/12/12 00:48:54;;;;;;;6.13;3.28;;;;;;;15.32;71.67;96279.84;5079861;28;20021;-26
2023/12/12 00:51:19;;;;;;;5.18;2.53;;;;;;;15.26;71.98;96276.97;5080004;28;20053;-27
2023/12/12 00:53:45;;;;;;;4.47;2.78;;;;;;;15.31;71.79;96276.34;5079796;28;20032;-27
2023/12/12 00:56:10;;;;;;;4.90;2.83;;;;;;;15.42;72.45;96271.13;5078265;28;20099;-26
2023/12/12 00:58:36;;;;;;;4.93;2.95;;;;;;;15.32;71.93;96274.38;5081931;28;20012;-27
2023/12/12 01:01:01;;;;;;;6.15;3.00;;;;;;;15.29;71.26;96278.78;5076372;28;20027;-26
2023/12/12 01:03:27;;;;;;;5.07;2.70;;;;;;;15.39;70.12;96268.56;5083710;28;20016;-27
2023/12/12 01:05:52;;;;;;;6.18;2.60;;;;;;;15.25;72.29;96274.69;5073463;28;20393;-27
2023/12/12 01:08:18;;;;;;;4.40;2.65;;;;;;;15.25;72.08;96277.41;5084227;28;20024;-28
2023/12/12 01:10:43;;;;;;;4.88;2.50;;;;;;;15.37;70.79;96277.22;5084797;28;20031;-27
2023/12/12 01:13:08;;;;;;;3.53;2.45;;;;;;;15.25;71.95;96272.72;5085943;28;20021;-27
2023/12/12 01:15:34;;;;;;;5.35;2.55;;;;;;;15.32;72.27;96275.13;5081212;28;20020;-27
2023/12/12 01:17:59;;;;;;;4.18;2.72;;;;;;;15.40;71.88;96289.97;5084236;28;20477;-27
2023/12/12 01:20:25;;;;;;;4.65;2.95;;;;;;;15.21;73.96;96295.94;5083500;28;20024;-28
2023/12/12 01:22:50;;;;;;;6.38;2.72;;;;;;;15.30;71.49;96290.47;5083862;28;20020;-27
2023/12/12 01:25:16;;;;;;;4.57;2.85;;;;;;;15.31;72.46;96284.53;5085857;28;20091;-26
2023/12/12 01:27:41;;;;;;;6.55;2.75;;;;;;;15.15;73.22;96287.63;5070791;28;20027;-27
2023/12/12 01:30:07;;;;;;;4.85;2.95;;;;;;;15.40;71.14;96292.69;5058100;28;20362;-27
2023/12/12 01:32:32;;;;;;;5.03;2.30;;;;;;;15.36;72.02;96289.38;5084108;28;20457;-26
2023/12/12 01:34:58;;;;;;;3.97;2.55;;;;;;;15.44;70.20;96298.00;5083536;28;20025;-27
2023/12/12 01:37:23;;;;;;;5.75;3.28;;;;;;;15.36;72.98;96294.84;5083588;28;20016;-27
2023/12/12 01:39:49;;;;;;;6.65;3.15;;;;;;;15.46;70.82;96295.53;5083367;28;20027;-27
2023/12/12 01:42:14;;;;;;;10.15;2.95;;;;;;;15.31;71.95;96300.94;5065283;28;20052;-27
2023/12/12 01:44:40;;;;;;;5.45;3.22;;;;;;;15.18;73.65;96292.16;5083044;28;20024;-26
2023/12/12 01:47:05;;;;;;;6.05;3.17;;;;;;;15.36;71.68;96294.84;5081660;28;20119;-27
2023/12/12 01:49:31;;;;;;;7.10;3.40;;;;;;;15.31;73.10;96290.00;5077234;28;20046;-26
2023/12/12 01:51:57;;;;;;;5.65;3.20;;;;;;;15.12;73.15;96293.22;5083463;28;20035;-26
2023/12/12 01:54:23;;;;;;;6.65;3.47;;;;;;;15.11;73.08;96287.00;5083165;28;20362;-27
2023/12/12 01:56:52;;;;;;;5.82;3.63;;;;;;;15.25;72.48;96289.09;5082744;28;20016;-27
2023/12/12 01:59:21;;;;;;;4.75;3.30;;;;;;;15.23;73.40;96286.06;5083063;28;20535;-27
2023/12/12 02:01:48;;;;;;;7.65;3.13;;;;;;;15.25;73.02;96289.09;5082501;28;20036;-26
2023/12/12 02:04:14;;;;;;;5.82;2.80;;;;;;;15.40;72.51;96281.00;5057317;28;20017;-26
2023/12/12 02:06:43;;;;;;;7.05;2.88;;;;;;;15.24;73.15;96273.94;5082884;28;20032;-26
2023/12/12 02:09:09;;;;;;;8.43;2.78;;;;;;;15.31;71.34;96281.06;5079169;28;20035;-27
2023/12/12 02:11:35;;;;;;;5.63;3.13;;;;;;;15.26;73.28;96281.66;5086945;28;20070;-26
2023/12/12 02:14:00;;;;;;;7.53;3.58;;;;;;;15.28;73.70;96282.72;5089974;28;20484;-26
2023/12/12 02:16:26;;;;;;;7.45;3.40;;;;;;;15.23;73.26;96277.13;5079513;28;20095;-27
2023/12/12 02:18:51;;;;;;;8.55;3.70;;;;;;;15.33;72.66;96271.16;5077916;28;20021;-26
2023/12/12 02:21:20;;;;;;;5.18;2.80;;;;;;;15.21;72.78;96268.63;5093193;28;20372;-26
2023/12/12 02:23:49;;;;;;;5.00;2.65;;;;;;;15.42;71.17;96264.91;5079491;28;20363;-27
2023/12/12 02:26:15;;;;;;;5.53;2.65;;;;;;;15.43;70.23;96266.44;5082712;28;20833;-27
2023/12/12 02:28:41;;;;;;;5.75;3.13;;;;;;;15.37;72.60;96265.53;5082515;28;20469;-27
2023/12/12 02:31:06;;;;;;;6.93;2.45;;;;;;;15.35;72.05;96274.19;5082561;28;20036;-27
2023/12/12 02:33:32;;;;;;;4.93;2.85;;;;;;;15.49;71.33;96269.28;5082305;28;20039;-26
2023/12/12 02:35:57;;;;;;;5.55;3.20;;;;;;;15.25;72.85;96267.25;5081326;28;20024;-27
2023/12/12 02:38:22;;;;;;;5.57;3.20;;;;;;;15.24;72.32;96267.69;5077343;28;20023;-26
2023/12/12 02:40:48;;;;;;;4.63;2.95;;;;;;;15.33;71.51;96260.22;5085138;28;20103;-27
2023/12/12 02:43:13;;;;;;;6.35;3.22;;;;;;;15.40;71.67;96254.44;5084810;28;20435;-27
2023/12/12 02:45:39;;;;;;;5.43;3.10;;;;;;;15.14;73.95;96260.75;5078229;28;20016;-27
2023/12/12 02:48:04;;;;;;;5.82;3.08;;;;;;;15.12;74.16;96255.00;5079140;28;20032;-28
2023/12/12 02:50:30;;;;;;;6.28;3.67;;;;;;;15.37;71.80;96249.91;5089606;28;20051;-27
2023/12/12 02:52:55;;;;;;;6.30;3.50;;;;;;;15.41;71.73;96247.00;5082268;28;20442;-26
2023/12/12 02:55:21;;;;;;;6.28;3.50;;;;;;;15.10;73.29;96248.00;5081611;28;20016;-27
2023/12/12 02:57:46;;;;;;;6.25;3.55;;;;;;;15.29;71.68;96243.25;5082149;28;20032;-27
2023/12/12 03:00:12;;;;;;;5.95;3.30;;;;;;;15.38;71.36;96239.72;5086529;28;20026;-27
2023/12/12 03:02:38;;;;;;;5.00;3.13;;;;;;;15.25;72.80;96248.13;5083907;28;20110;-26
2023/12/12 03:05:04;;;;;;;6.78;3.30;;;;;;;15.27;72.29;96245.69;5074114;28;20024;-28
2023/12/12 03:07:30;;;;;;;5.97;3.28;;;;;;;15.45;71.34;96231.94;5082307;28;20021;-27
2023/12/12 03:09:55;;;;;;;5.60;3.30;;;;;;;15.44;71.37;96227.72;5081882;28;20023;-27
2023/12/12 03:12:21;;;;;;;7.65;3.55;;;;;;;15.24;72.20;96222.03;5060559;28;20020;-27
2023/12/12 03:14:46;;;;;;;7.13;3.17;;;;;;;15.38;71.24;96221.34;5083874;28;20048;-28
2023/12/12 03:17:11;;;;;;;9.13;3.83;;;;;;;15.30;72.80;96219.44;5081190;28;20027;-27
2023/12/12 03:19:37;;;;;;;6.90;3.40;;;;;;;15.34;72.17;96223.50;5081279;28;20024;-27
2023/12/12 03:22:03;;;;;;;6.07;3.60;;;;;;;15.26;73.20;96225.06;5074219;28;20039;-27
2023/12/12 03:24:28;;;;;;;7.90;3.83;;;;;;;15.18;73.78;96232.06;5084766;28;20019;-27
2023/12/12 03:26:53;;;;;;;6.68;3.60;;;;;;;15.12;73.48;96228.44;5091945;28;20412;-27
2023/12/12 03:29:19;;;;;;;6.90;3.72;;;;;;;15.19;73.67;96236.31;5075359;28;20021;-26
2023/12/12 03:31:44;;;;;;;6.07;3.85;;;;;;;15.20;72.91;96237.84;5084681;28;20031;-27
2023/12/12 03:34:10;;;;;;;6.68;3.60;;;;;;;15.27;72.66;96242.19;5057284;28;20032;-26
2023/12/12 03:36:40;;;;;;;4.43;3.60;;;;;;;15.33;73.04;96243.84;5081850;28;20035;-27
2023/12/12 03:39:06;;;;;;;6.55;3.92;;;;;;;15.38;71.14;96240.47;5080875;28;20040;-26
2023/12/12 03:41:31;;;;;;;5.03;3.20;;;;;;;15.35;72.67;96248.84;5081539;28;20023;-26
2023/12/12 03:43:57;;;;;;;5.57;3.30;;;;;;;15.40;71.57;96248.97;5079202;28;20365;-26
2023/12/12 03:46:22;;;;;;;7.50;3.35;;;;;;;15.38;71.49;96259.59;5083686;28;20113;-27
2023/12/12 03:48:48;;;;;;;7.43;3.38;;;;;;;15.39;71.74;96272.06;5080644;28;20021;-26
2023/12/12 03:51:13;;;;;;;6.32;3.58;;;;;;;15.40;72.86;96259.91;5079915;28;20094;-27
2023/12/12 03:53:39;;;;;;;5.18;3.00;;;;;;;15.34;72.40;96259.00;5075847;28;20021;-27
2023/12/12 03:56:05;;;;;;;6.55;3.70;;;;;;;15.42;71.85;96264.91;5087191;28;20023;-26
2023/12/12 03:58:31;;;;;;;8.23;3.75;;;;;;;15.33;73.62;96264.97;5080161;28;20013;-26
2023/12/12 04:00:56;;;;;;;6.68;3.45;;;;;;;15.17;74.39;96271.53;5073630;28;20016;-26
2023/12/12 04:03:22;;;;;;;7.10;4.45;;;;;;;15.21;72.90;96258.44;5080146;28;20027;-27
2023/12/12 04:05:47;;;;;;;8.63;4.68;;;;;;;15.40;72.76;96264.63;5080295;28;20026;-28
2023/12/12 04:08:13;;;;;;;11.30;6.00;;;;;;;15.41;72.18;96260.66;5084329;28;20098;-27
2023/12/12 04:10:38;;;;;;;13.52;6.28;;;;;;;15.42;70.69;96256.72;5084262;28;20094;-26
2023/12/12 04:13:04;;;;;;;10.90;4.95;;;;;;;15.37;71.56;96255.34;5073579;28;20046;-27
2023/12/12 04:15:29;;;;;;;9.68;4.82;;;;;;;15.43;71.91;96256.25;5062872;28;20028;-27
2023/12/12 04:17:55;;;;;;;7.88;4.65;;;;;;;15.54;70.21;96252.25;5080679;28;20063;-26
2023/12/12 04:20:20;;;;;;;9.00;3.88;;;;;;;15.20;72.83;96254.22;5084072;28;20020;-26
2023/12/12 04:22:46;;;;;;;8.93;4.80;;;;;;;15.34;72.67;96248.06;5077122;28;20382;-26
2023/12/12 04:25:12;;;;;;;7.50;4.32;;;;;;;15.25;73.21;96245.38;5080869;28;20485;-28
2023/12/12 04:27:37;;;;;;;7.75;4.20;;;;;;;15.48;70.64;96245.91;5077924;28;20020;-28
2023/12/12 04:30:07;;;;;;;7.22;4.03;;;;;;;15.33;72.56;96243.09;5083446;28;20026;-26
2023/12/12 04:32:33;;;;;;;7.90;4.10;;;;;;;15.21;72.56;96250.25;5076498;28;20065;-27
2023/12/12 04:35:01;;;;;;;7.25;3.60;;;;;;;15.35;72.92;96257.03;5083659;28;20109;-26
2023/12/12 04:37:26;;;;;;;6.78;3.55;;;;;;;15.43;72.15;96241.84;5080436;28;20024;-27
2023/12/12 04:39:52;;;;;;;7.32;3.83;;;;;;;15.35;73.14;96238.66;5077955;28;20039;-27
2023/12/12 04:42:18;;;;;;;6.22;3.45;;;;;;;15.22;73.73;96243.56;5075366;28;20023;-26
2023/12/12 04:44:43;;;;;;;7.70;4.20;;;;;;;15.27;72.53;96248.41;5083863;28;20024;-26
2023/12/12 04:47:09;;;;;;;5.35;3.88;;;;;;;15.25;72.59;96248.13;5087641;28;20032;-27
2023/12/12 04:49:35;;;;;;;6.78;3.90;;;;;;;15.23;73.38;96245.09;5086092;28;20024;-27
2023/12/12 04:52:01;;;;;;;6.00;3.30;;;;;;;15.28;72.70;96247.22;5087905;28;20473;-27
2023/12/12 04:54:27;;;;;;;6.97;4.65;;;;;;;15.30;72.38;96244.00;5086727;28;20016;-26
2023/12/12 04:56:52;;;;;;;6.68;3.88;;;;;;;15.38;71.34;96256.13;5087196;28;20034;-28
2023/12/12 04:59:18;;;;;;;6.00;3.22;;;;;;;15.23;72.01;96261.47;5070551;28;20021;-27
2023/12/12 05:01:43;;;;;;;6.35;3.95;;;;;;;15.09;72.83;96257.44;5085067;28;20142;-26
2023/12/12 05:04:09;;;;;;;6.18;3.47;;;;;;;15.29;71.42;96256.16;5087272;28;20381;-28
2023/12/12 05:06:34;;;;;;;6.40;3.78;;;;;;;15.40;71.32;96250.94;5087459;28;20079;-26
2023/12/12 05:09:00;;;;;;;5.45;3.40;;;;;;;15.19;72.80;96249.97;5085979;28;20033;-27
2023/12/12 05:11:25;;;;;;;4.88;3.70;;;;;;;15.31;72.02;96251.75;5089090;28;20056;-27
2023/12/12 05:13:51;;;;;;;4.88;3.30;;;;;;;15.28;71.64;96252.66;5091437;28;20024;-26
2023/12/12 05:16:16;;;;;;;4.80;3.45;;;;;;;15.32;71.52;96258.72;5079962;28;20016;-26
2023/12/12 05:18:42;;;;;;;4.55;3.20;;;;;;;15.38;71.54;96262.34;5087518;28;20031;-27
2023/12/12 05:21:07;;;;;;;5.25;3.40;;;;;;;15.42;70.63;96270.38;5083998;28;20024;-26
2023/12/12 05:23:33;;;;;;;3.63;2.97;;;;;;;15.28;71.40;96279.22;5088268;28;20032;-26
2023/12/12 05:25:58;;;;;;;6.07;3.63;;;;;;;15.49;71.02;96282.94;5078941;28;20031;-27
2023/12/12 05:28:24;;;;;;;4.38;3.60;;;;;;;15.33;71.16;96276.63;5078711;28;20034;-26
2023/12/12 05:30:50;;;;;;;4.05;3.38;;;;;;;15.29;72.28;96270.59;5081396;28;20024;-26
2023/12/12 05:33:16;;;;;;;7.00;3.80;;;;;;;15.39;71.93;96258.41;5083401;28;20142;-27
2023/12/12 05:35:41;;;;;;;4.20;3.38;;;;;;;15.26;72.55;96268.00;5083246;28;20052;-27
2023/12/12 05:38:07;;;;;;;4.25;3.22;;;;;;;15.06;73.48;96279.47;5083603;28;20016;-26
2023/12/12 05:40:33;;;;;;;5.15;3.78;;;;;;;15.35;72.27;96284.34;5083241;28;20040;-26
2023/12/12 05:42:58;;;;;;;4.93;3.42;;;;;;;15.31;72.48;96278.31;5083353;28;20104;-27
2023/12/12 05:45:24;;;;;;;5.50;3.72;;;;;;;15.34;71.80;96283.59;5075890;28;20068;-27
2023/12/12 05:47:50;;;;;;;4.93;3.72;;;;;;;15.22;71.20;96286.53;5065296;28;20103;-26
2023/12/12 05:50:15;;;;;;;4.88;3.45;;;;;;;15.27;71.54;96278.47;5082797;28;20115;-26
2023/12/12 05:52:41;;;;;;;4.03;3.60;;;;;;;15.24;71.48;96275.91;5083715;28;20048;-26
2023/12/12 05:55:08;;;;;;;4.30;3.40;;;;;;;15.08;72.76;96266.09;5080095;28;20513;-26
2023/12/12 05:57:34;;;;;;;4.30;3.63;;;;;;;15.04;73.74;96262.75;5081655;28;20466;-26
2023/12/12 06:00:00;;;;;;;4.25;3.30;;;;;;;15.30;71.14;96261.16;5084883;28;20073;-27
2023/12/12 06:02:26;;;;;;;4.60;3.60;;;;;;;15.44;71.55;96265.22;5084591;28;20020;-26
2023/12/12 06:04:51;;;;;;;4.53;3.22;;;;;;;15.30;71.88;96271.34;5082907;28;20016;-26
2023/12/12 06:07:17;;;;;;;3.38;2.88;;;;;;;15.27;72.41;96262.09;5079202;28;20373;-26
2023/12/12 06:09:43;;;;;;;4.07;2.92;;;;;;;15.25;72.53;96261.78;5084499;28;20021;-27
2023/12/12 06:12:08;;;;;;;5.43;2.97;;;;;;;15.34;71.80;96267.22;5084252;28;20366;-27
2023/12/12 06:14:35;;;;;;;4.75;2.80;;;;;;;15.26;72.33;96271.50;5086020;28;20032;-26
2023/12/12 06:17:01;;;;;;;5.75;3.10;;;;;;;15.24;72.37;96276.66;5074723;28;20025;-26
2023/12/12 06:19:26;;;;;;;5.63;4.97;;;;;;;15.57;70.08;96295.09;5088352;28;20016;-26
2023/12/12 06:21:53;;;;;;;7.85;5.70;;;;;;;15.34;71.79;96291.78;5073852;28;20020;-27
2023/12/12 06:24:19;;;;;;;7.88;5.88;;;;;;;15.26;71.81;96287.88;5082108;28;20017;-26
2023/12/12 06:26:45;;;;;;;7.43;5.63;;;;;;;15.30;71.39;96293.97;5082360;28;20372;-26
2023/12/12 06:29:11;;;;;;;7.55;4.70;;;;;;;15.43;71.50;96296.50;5089002;28;20035;-27
2023/12/12 06:31:36;;;;;;;7.30;4.10;;;;;;;15.39;71.90;96296.66;5077606;28;20058;-26
2023/12/12 06:34:02;;;;;;;6.50;4.60;;;;;;;15.41;72.09;96296.94;5084358;28;20242;-27
2023/12/12 06:36:27;;;;;;;7.25;4.00;;;;;;;15.33;72.35;96298.47;5076448;28;20042;-29
2023/12/12 06:38:53;;;;;;;7.65;3.85;;;;;;;15.14;73.43;96302.50;5079374;28;20016;-26
2023/12/12 06:41:19;;;;;;;7.93;3.67;;;;;;;15.31;72.42;96309.13;5081199;28;20166;-26
2023/12/12 06:43:44;;;;;;;4.65;3.53;;;;;;;15.40;72.06;96317.28;5084150;28;20024;-26
2023/12/12 06:46:10;;;;;;;7.72;3.72;;;;;;;15.20;73.26;96327.22;5077838;28;20034;-26
2023/12/12 06:48:37;;;;;;;4.82;2.97;;;;;;;15.37;72.38;96320.94;5081189;28;20058;-26
2023/12/12 06:51:03;;;;;;;4.82;2.70;;;;;;;15.39;72.13;96329.44;5020425;28;1662873;-27
2023/12/12 06:53:29;;;;;;;10.85;3.97;;;;;;;15.34;72.88;96332.78;5084605;28;20028;-27
2023/12/12 06:55:54;;;;;;;6.95;2.92;;;;;;;15.33;73.08;96325.81;5077729;28;20027;-26
2023/12/12 06:58:22;;;;;;;5.95;3.20;;;;;;;15.37;72.58;96328.38;5084668;28;20492;-26
2023/12/12 07:00:48;;;;;;;4.50;2.47;;;;;;;15.31;72.81;96322.78;5058219;28;20025;-26
2023/12/12 07:03:13;;;;;;;6.57;2.33;;;;;;;15.44;72.43;96323.38;5080113;28;20370;-26
2023/12/12 07:05:39;;;;;;;6.38;2.70;;;;;;;15.31;72.24;96322.03;5081762;28;20020;-27
2023/12/12 07:08:05;;;;;;;5.30;2.28;;;;;;;15.50;72.35;96330.91;5083354;28;20020;-26
2023/12/12 07:10:33;;;;;;;8.15;3.53;;;;;;;15.39;73.21;96321.25;5084843;28;20457;-26
2023/12/12 07:12:59;;;;;;;6.82;2.38;;;;;;;15.46;71.33;96333.81;5082820;28;20052;-27
2023/12/12 07:15:28;;;;;;;9.18;2.83;;;;;;;15.34;72.88;96340.97;5086504;28;20074;-27
2023/12/12 07:17:53;;;;;;;4.65;2.25;;;;;;;15.53;70.04;96349.91;5083770;28;20020;-26
2023/12/12 07:20:19;;;;;;;7.18;2.25;;;;;;;15.54;71.55;96350.66;5081345;28;20078;-27
2023/12/12 07:22:45;;;;;;;8.00;2.83;;;;;;;15.32;72.99;96356.34;5081755;28;20024;-26
2023/12/12 07:25:10;;;;;;;7.95;2.55;;;;;;;15.49;71.03;96359.47;5075344;28;20491;-26
2023/12/12 07:27:36;;;;;;;4.40;2.40;;;;;;;15.61;69.83;96362.03;5080739;28;20029;-26
2023/12/12 07:30:02;;;;;;;4.38;2.15;;;;;;;15.62;70.05;96373.72;5081592;28;20389;-26
2023/12/12 07:32:27;;;;;;;9.30;3.03;;;;;;;15.46;71.69;96372.84;5088729;28;20036;-26
2023/12/12 07:34:54;;;;;;;8.02;2.83;;;;;;;15.52;71.37;96380.41;5081145;28;20070;-27
2023/12/12 07:37:19;;;;;;;6.63;2.38;;;;;;;15.61;70.02;96388.63;5081007;28;20016;-27
2023/12/12 07:39:45;;;;;;;6.68;2.67;;;;;;;15.50;70.05;96388.31;5080914;28;20542;-27
2023/12/12 07:42:10;;;;;;;6.38;3.22;;;;;;;15.38;73.23;96396.25;5081464;28;20030;-26
2023/12/12 07:44:36;;;;;;;9.23;3.50;;;;;;;15.40;72.82;96407.47;5081323;28;20041;-26
2023/12/12 07:47:02;;;;;;;5.55;3.13;;;;;;;15.40;72.48;96391.06;5081049;28;20461;-27
2023/12/12 07:49:28;;;;;;;4.93;2.70;;;;;;;15.43;71.36;96392.16;5080630;28;20023;-27
2023/12/12 07:51:54;;;;;;;8.52;2.90;;;;;;;15.27;74.05;96398.69;5077014;28;20054;-26
2023/12/12 07:54:20;;;;;;;5.47;2.97;;;;;;;15.47;72.13;96403.66;5077386;28;20028;-26
2023/12/12 07:56:46;;;;;;;4.70;3.13;;;;;;;15.32;73.48;96409.00;5081325;28;20020;-27
2023/12/12 07:59:11;;;;;;;5.40;2.75;;;;;;;15.45;71.70;96415.03;5080663;28;20024;-27
2023/12/12 08:01:37;;;;;;;7.50;4.00;;;;;;;15.29;73.46;96415.38;5080835;28;20016;-26
2023/12/12 08:04:04;;;;;;;6.07;3.60;;;;;;;15.30;72.54;96425.09;5076385;28;20472;-27
2023/12/12 08:06:30;;;;;;;6.20;3.50;;;;;;;15.33;73.68;96431.63;5084232;28;20024;-26
2023/12/12 08:08:56;;;;;;;5.97;3.35;;;;;;;15.37;73.20;96429.47;5074416;28;20485;-26
2023/12/12 08:11:24;;;;;;;5.60;4.32;;;;;;;15.38;73.27;96431.00;5084169;28;20027;-27
2023/12/12 08:13:50;;;;;;;4.43;3.53;;;;;;;15.23;75.45;96428.13;5075602;28;20062;-27
2023/12/12 08:16:15;;;;;;;5.93;3.80;;;;;;;15.22;75.34;96436.78;5080266;28;20016;-27
2023/12/12 08:18:41;;;;;;;5.30;3.58;;;;;;;15.11;75.81;96439.97;5086931;28;20074;-26
2023/12/12 08:21:09;;;;;;;5.55;3.30;;;;;;;15.35;74.35;96431.91;5080974;28;20024;-27
2023/12/12 08:23:37;;;;;;;5.75;3.33;;;;;;;15.24;75.83;96445.28;5085274;28;20374;-27
2023/12/12 08:26:03;;;;;;;4.63;3.67;;;;;;;15.35;75.00;96448.31;5074880;28;20056;-27
2023/12/12 08:28:28;;;;;;;5.38;3.58;;;;;;;15.50;73.46;96442.97;5080202;28;20024;-27
2023/12/12 08:30:54;;;;;;;7.28;3.65;;;;;;;15.25;75.38;96436.63;5080244;28;20119;-27
2023/12/12 08:33:20;;;;;;;5.38;3.47;;;;;;;15.57;73.58;96437.25;5080479;28;20029;-26
2023/12/12 08:35:46;;;;;;;5.97;3.45;;;;;;;15.63;71.68;96433.41;5085222;28;20031;-27
2023/12/12 08:38:12;;;;;;;4.97;3.45;;;;;;;15.42;73.32;96426.91;5082698;28;20019;-26
2023/12/12 08:40:37;;;;;;;7.95;4.15;;;;;;;15.57;73.09;96431.78;5076000;28;20024;-26
2023/12/12 08:43:03;;;;;;;5.45;3.33;;;;;;;15.54;71.51;96432.66;5078042;28;20066;-26
2023/12/12 08:45:29;;;;;;;5.88;3.47;;;;;;;15.40;72.70;96440.28;5080629;28;20520;-27
2023/12/12 08:47:57;;;;;;;5.07;3.15;;;;;;;15.54;71.46;96438.88;5079820;28;20020;-27
2023/12/12 08:50:23;;;;;;;8.10;3.03;;;;;;;15.56;70.74;96441.94;5087116;28;20478;-27
2023/12/12 08:52:48;;;;;;;6.05;3.05;;;;;;;15.72;70.45;96427.91;5079834;28;20020;-26
2023/12/12 08:55:14;;;;;;;7.03;3.03;;;;;;;15.53;71.62;96436.59;5086195;28;20023;-26
2023/12/12 08:57:46;;;;;;;4.00;2.58;;;;;;;15.72;69.92;96432.63;5081075;28;20016;-26
2023/12/12 09:00:12;;;;;;;7.93;3.20;;;;;;;15.61;70.67;96435.84;5060158;28;20500;-26
2023/12/12 09:02:39;;;;;;;7.05;3.00;;;;;;;15.49;72.36;96436.00;5075263;28;20447;-27
2023/12/12 09:05:06;;;;;;;6.47;3.03;;;;;;;15.64;71.45;96426.72;5080075;28;20043;-29
2023/12/12 09:07:33;;;;;;;4.03;2.85;;;;;;;15.67;70.49;96444.19;5061542;28;20478;-27
2023/12/12 09:09:59;;;;;;;6.90;3.55;;;;;;;15.69;70.74;96436.31;5074316;28;20039;-27
2023/12/12 09:12:25;;;;;;;4.95;2.90;;;;;;;15.50;71.69;96441.00;5078072;28;20143;-26
2023/12/12 09:14:50;;;;;;;5.35;3.85;;;;;;;15.50;71.56;96441.00;5080061;28;20024;-27
2023/12/12 09:17:15;;;;;;;3.65;3.03;;;;;;;15.57;70.59;96445.44;5079531;28;20016;-27
2023/12/12 09:19:41;;;;;;;5.15;3.30;;;;;;;15.52;71.20;96443.28;5079159;28;20039;-27
2023/12/12 09:22:06;;;;;;;4.70;3.30;;;;;;;15.52;71.28;96451.47;5080698;28;20024;-27
2023/12/12 09:24:33;;;;;;;6.03;3.13;;;;;;;15.65;71.03;96443.91;5077142;28;20016;-27
2023/12/12 09:26:59;;;;;;;4.88;3.22;;;;;;;15.62;70.38;96439.34;5082284;28;20524;-27
2023/12/12 09:29:26;;;;;;;4.10;3.17;;;;;;;15.96;69.36;96435.44;5087054;28;20032;-26
2023/12/12 09:31:51;;;;;;;5.25;3.40;;;;;;;15.55;70.70;96429.50;5082569;28;20028;-27
2023/12/12 09:34:17;;;;;;;5.72;3.17;;;;;;;15.51;71.18;96433.56;5091271;28;20035;-27
2023/12/12 09:36:42;;;;;;;6.85;3.10;;;;;;;15.51;71.38;96428.09;5076102;28;20024;-26
2023/12/12 09:39:10;;;;;;;6.70;3.40;;;;;;;15.58;71.96;96422.34;5083039;28;20078;-27
2023/12/12 09:41:36;;;;;;;5.25;3.30;;;;;;;15.46;71.91;96419.28;5083542;28;20541;-27
2023/12/12 09:44:04;;;;;;;7.38;3.25;;;;;;;15.66;71.22;96424.31;5070073;28;20070;-26
2023/12/12 09:46:30;;;;;;;5.55;3.40;;;;;;;15.73;71.06;96426.72;5082750;28;20425;-26
2023/12/12 09:48:58;;;;;;;7.53;3.40;;;;;;;15.70;70.72;96424.16;5080589;28;20027;-28
2023/12/12 09:51:24;;;;;;;6.32;3.10;;;;;;;15.73;70.49;96417.75;5085850;28;20048;-27
2023/12/12 09:53:50;;;;;;;7.75;3.25;;;;;;;15.65;71.45;96411.09;5086397;28;20107;-26
2023/12/12 09:56:17;;;;;;;5.22;3.00;;;;;;;15.74;71.03;96419.25;5069463;28;20108;-26
2023/12/12 09:58:45;;;;;;;7.00;3.40;;;;;;;15.70;71.14;96413.22;5084332;28;20469;-27
2023/12/12 10:01:11;;;;;;;4.05;2.92;;;;;;;15.62;71.19;96407.28;5088776;28;20070;-27
2023/12/12 10:03:38;;;;;;;6.07;3.20;;;;;;;15.66;71.64;96415.34;5082849;28;20016;-26
2023/12/12 10:06:08;;;;;;;7.28;3.30;;;;;;;15.75;71.30;96405.13;5082577;28;20017;-26
2023/12/12 10:08:34;;;;;;;7.47;3.10;;;;;;;15.76;71.30;96389.50;5076075;28;20531;-27
2023/12/12 10:10:59;;;;;;;8.05;3.28;;;;;;;15.68;70.52;96400.00;5090040;28;20039;-27
2023/12/12 10:13:26;;;;;;;9.82;3.83;;;;;;;15.60;71.94;96400.75;5087699;28;20016;-27
2023/12/12 10:15:51;;;;;;;10.80;3.17;;;;;;;15.75;71.20;96398.91;5077459;28;20097;-27
2023/12/12 10:18:17;;;;;;;5.63;3.08;;;;;;;15.60;72.43;96395.31;5075105;28;20462;-27
2023/12/12 10:20:42;;;;;;;6.35;2.78;;;;;;;15.82;70.36;96393.13;5082874;28;20028;-26
2023/12/12 10:23:07;;;;;;;7.85;3.38;;;;;;;15.67;71.80;96400.47;5082953;28;20020;-27
2023/12/12 10:25:35;;;;;;;7.25;3.72;;;;;;;15.61;71.78;96394.09;5082614;28;20039;-27
2023/12/12 10:28:01;;;;;;;9.43;3.80;;;;;;;15.68;71.70;96393.78;5081816;28;20436;-27
2023/12/12 10:30:27;;;;;;;7.45;3.70;;;;;;;15.64;72.46;96388.47;5082041;28;20048;-27
2023/12/12 10:32:53;;;;;;;10.38;3.47;;;;;;;15.74;71.78;96378.25;5080942;28;20508;-27
2023/12/12 10:35:23;;;;;;;8.50;3.75;;;;;;;15.44;73.70;96382.72;5083000;28;20116;-27
2023/12/12 10:37:52;;;;;;;8.77;3.30;;;;;;;15.67;72.87;96370.38;5080108;28;20492;-26
2023/12/12 10:40:22;;;;;;;10.85;3.75;;;;;;;15.80;70.29;96377.19;5084842;28;20028;-26
2023/12/12 10:42:49;;;;;;;9.18;3.60;;;;;;;15.82;71.32;96371.25;5084568;28;20485;-27
2023/12/12 10:45:16;;;;;;;7.68;3.95;;;;;;;15.96;71.09;96376.03;5077524;28;20071;-27
2023/12/12 10:47:46;;;;;;;8.40;3.75;;;;;;;15.77;71.57;96369.88;5077823;28;20058;-26
2023/12/12 10:50:14;;;;;;;9.65;3.42;;;;;;;15.50;74.70;96371.91;5078928;28;20082;-27
2023/12/12 10:52:41;;;;;;;8.00;3.40;;;;;;;15.71;72.78;96376.44;5082144;28;20099;-26
2023/12/12 10:55:11;;;;;;;8.85;3.50;;;;;;;15.64;71.70;96365.84;5068935;28;20103;-27
2023/12/12 10:57:43;;;;;;;8.48;3.65;;;;;;;15.77;73.12;96369.13;5083701;28;20446;-26
2023/12/12 11:00:14;;;;;;;6.65;3.65;;;;;;;15.77;71.88;96366.41;5085983;28;20132;-27
2023/12/12 11:02:41;;;;;;;7.20;4.32;;;;;;;15.57;73.39;96377.09;5083796;28;20027;-26
2023/12/12 11:05:14;;;;;;;9.75;3.85;;;;;;;15.44;74.30;96380.00;5085261;28;20116;-28
2023/12/12 11:07:42;;;;;;;8.57;3.88;;;;;;;15.58;73.77;96375.88;5084175;28;20030;-26
2023/12/12 11:10:13;;;;;;;8.57;3.45;;;;;;;15.70;72.79;96353.78;5077611;28;20473;-27
2023/12/12 11:12:59;;;;;;;4.63;3.05;;;;;;;15.78;72.54;96356.97;5078223;28;20031;-27
2023/12/12 11:15:26;;;;;;;9.43;2.47;;;;;;;15.93;70.41;96362.53;5086005;28;20061;-27
2023/12/12 11:17:52;;;;;;;5.80;2.08;;;;;;;15.51;73.47;96355.06;5083729;28;20024;-27
2023/12/12 11:20:19;;;;;;;8.07;2.20;;;;;;;15.68;72.93;96356.25;5081204;28;20062;-27
2023/12/12 11:22:48;;;;;;;7.57;2.47;;;;;;;15.55;73.54;96352.97;5081619;28;20036;-27
2023/12/12 11:25:29;;;;;;;6.75;2.65;;;;;;;15.71;73.51;96349.09;5081550;28;20028;-27
2023/12/12 11:27:58;;;;;;;8.70;2.85;;;;;;;15.70;73.12;96334.66;5080778;28;20023;-27